Anfa — CNA2495 — position and weather

sailwx.info

Track history (hours):
 
Tides and Currents Weather Stations Pressure Air Temp Water Temp Dewpoint Dewpoint Depression Visibility Wind Speed Wind Dir Waves Ship Positions

Anfa

Last reported at 2018-May-11 16:51 UTC. Time now 2018-Jun-24 04:51 UTC.
Position N 35°57' W 005°34'.
Warning: this ship's position is 43 days out of date.

Length 105 m; draft 4.7 m.

Type: Ship (hazmat cat A). MMSI: 242576000.

Date/timePositionNaut miles runAvg speedWind from/ knotsBaromVisibWave heightAir tempDewpointWater temp
2018-May-11 16:51N 35°57' W 005°34'410.6
2018-May-11 16:30N 35°59' W 005°30'5 9.9
2018-May-11 16:00N 35°59' W 005°23'611.1
2018-May-11 15:30N 35°55' W 005°19'2 2.9
2018-May-11 14:58N 35°54' W 005°19'0 0.0
2018-May-11 14:28N 35°54' W 005°19'0 0.0
2018-May-11 13:58N 35°54' W 005°19'0 0.0
2018-May-11 13:28N 35°54' W 005°19'0 0.0
2018-May-11 12:58N 35°54' W 005°19'0 0.0
2018-May-11 12:28N 35°54' W 005°19'0 0.0
2018-May-11 11:58N 35°54' W 005°19'0 0.0
2018-May-11 11:28N 35°54' W 005°19'0 0.0
2018-May-11 10:58N 35°54' W 005°19'0 0.0
2018-May-11 10:28N 35°54' W 005°19'0 0.0
2018-May-11 09:58N 35°54' W 005°19'0 1.1
2018-May-11 09:30N 35°54' W 005°19'1 1.6
2018-May-11 08:58N 35°54' W 005°20'0 0.0
2018-May-11 08:28N 35°54' W 005°20'0 0.0
2018-May-11 07:58N 35°54' W 005°20'0 0.0
2018-May-11 07:28N 35°55' W 005°20'0 0.0
2018-May-11 06:58N 35°55' W 005°20'0 0.0
2018-May-11 06:28N 35°55' W 005°20'0 0.0
2018-May-11 05:52N 35°55' W 005°20'0 0.1
2018-May-11 05:28N 35°55' W 005°20'0 0.1
2018-May-11 04:58N 35°55' W 005°20'0 0.3
2018-May-11 04:30N 35°55' W 005°20'5 9.4
2018-May-11 04:00N 35°56' W 005°14'  
2018-May-08 12:02N 35°56' W 005°15'012.8
2018-May-08 12:00N 35°56' W 005°15'713.5
2018-May-08 11:31N 35°57' W 005°23'  
2018-May-06 00:51N 35°52' W 005°52'  
Track history (hours):
 
Tides and Currents Weather Stations Pressure Air Temp Water Temp Dewpoint Dewpoint Depression Visibility Wind Speed Wind Dir Waves Ship Positions

Anfa

Last reported at 2018-May-11 16:51 UTC. Time now 2018-Jun-24 04:51 UTC.
Position N 35°57' W 005°34'.
Warning: this ship's position is 43 days out of date.

Length 105 m; draft 4.7 m.

Type: Ship (hazmat cat A). MMSI: 242576000.

Date/timePositionNaut miles runAvg speedWind from/ knotsBaromVisibWave heightAir tempDewpointWater temp
2018-May-11 16:51N 35°57' W 005°34'410.6
2018-May-11 16:30N 35°59' W 005°30'5 9.9
2018-May-11 16:00N 35°59' W 005°23'611.1
2018-May-11 15:30N 35°55' W 005°19'2 2.9
2018-May-11 14:58N 35°54' W 005°19'0 0.0
2018-May-11 14:28N 35°54' W 005°19'0 0.0
2018-May-11 13:58N 35°54' W 005°19'0 0.0
2018-May-11 13:28N 35°54' W 005°19'0 0.0
2018-May-11 12:58N 35°54' W 005°19'0 0.0
2018-May-11 12:28N 35°54' W 005°19'0 0.0
2018-May-11 11:58N 35°54' W 005°19'0 0.0
2018-May-11 11:28N 35°54' W 005°19'0 0.0
2018-May-11 10:58N 35°54' W 005°19'0 0.0
2018-May-11 10:28N 35°54' W 005°19'0 0.0
2018-May-11 09:58N 35°54' W 005°19'0 1.1
2018-May-11 09:30N 35°54' W 005°19'1 1.6
2018-May-11 08:58N 35°54' W 005°20'0 0.0
2018-May-11 08:28N 35°54' W 005°20'0 0.0
2018-May-11 07:58N 35°54' W 005°20'0 0.0
2018-May-11 07:28N 35°55' W 005°20'0 0.0
2018-May-11 06:58N 35°55' W 005°20'0 0.0
2018-May-11 06:28N 35°55' W 005°20'0 0.0
2018-May-11 05:52N 35°55' W 005°20'0 0.1
2018-May-11 05:28N 35°55' W 005°20'0 0.1
2018-May-11 04:58N 35°55' W 005°20'0 0.3
2018-May-11 04:30N 35°55' W 005°20'5 9.4
2018-May-11 04:00N 35°56' W 005°14'  
2018-May-08 12:02N 35°56' W 005°15'012.8
2018-May-08 12:00N 35°56' W 005°15'713.5
2018-May-08 11:31N 35°57' W 005°23'  
2018-May-06 00:51N 35°52' W 005°52'  

Dump ship's entire track history